Cedarvale, New Mexico
Current Conditions -  °F | °C
As of 3:53 AM on Wednesday 22 Oct 2014 (Local Time) from KCQC Reporting Station
Broken Clouds Broken Clouds  
Wind Chill: 42°   Ceiling: 8000
Heat Index: 47°   Visibility: 10mi
Dew Point: 45°   Wind: 12mph
Humidity: 93%   Direction: 230°SW
Pressure: 30.16"   Gusts: NA
Location:  34.37°N, 105.7°W
Report Text: KCQC 220953Z AUTO 23010KT 10SM BKN080 08/07 A3016 RMK AO2 SLP149 T00830072
Loading
Personal Weather Stations






























Interactive Weather Map
Tropical Storm Tracking
New forecast layout! Learn more

10-Day Weather Forecast

Advertisements
Track Severe Weather on mobile